Time;durP1;ratioP1;P1;durP2;ratioP2;P2;SDS_P1;SDS_P2;PMS_P1;PMS_P2;Temp;Humidity;BMP_temperature;BMP_pressure;BME280_temperature;BME280_humidity;BME280_pressure;Samples;Min_cycle;Max_cycle;Signal;HPM_P1;HPM_P2
2023/05/02 00:00:17;;;;;;;7.97;7.23;;;;;;;16.29;47.70;99802.13;10321821;28;20230;-39
2023/05/02 00:05:19;;;;;;;10.30;6.50;;;;;;;17.04;46.20;99835.47;10321558;28;20907;-39
2023/05/02 00:10:21;;;;;;;6.50;5.83;;;;;;;17.29;45.99;99863.25;10322993;28;20226;-39
2023/05/02 00:15:23;;;;;;;6.90;6.20;;;;;;;17.21;46.04;99830.25;10319375;28;20249;-39
2023/05/02 00:20:25;;;;;;;7.93;5.90;;;;;;;17.17;46.04;99832.59;10323825;28;20241;-38
2023/05/02 00:25:26;;;;;;;8.13;6.43;;;;;;;15.56;48.59;99794.59;10317803;28;20238;-38
2023/05/02 00:30:28;;;;;;;9.50;7.47;;;;;;;14.46;51.05;99788.16;10322294;28;20289;-38
2023/05/02 00:35:32;;;;;;;7.90;7.07;;;;;;;14.99;50.46;99848.34;10319832;28;20229;-39
2023/05/02 00:40:48;;;;;;;8.47;7.20;;;;;;;16.06;48.78;99840.50;10322263;28;20752;-38
2023/05/02 00:45:50;;;;;;;8.37;7.57;;;;;;;14.77;51.19;99852.06;10318396;28;20248;-39
2023/05/02 00:50:52;;;;;;;8.87;7.93;;;;;;;16.68;47.38;99827.09;10317268;28;20241;-38
2023/05/02 00:55:56;;;;;;;8.40;7.60;;;;;;;15.95;48.22;99827.75;10320642;28;20253;-38
2023/05/02 01:01:24;;;;;;;9.83;7.70;;;;;;;15.02;50.02;99859.50;10319233;28;20230;-39
2023/05/02 01:06:58;;;;;;;8.33;6.93;;;;;;;16.01;47.98;99834.94;10316938;28;20257;-39
2023/05/02 01:12:15;;;;;;;7.43;6.50;;;;;;;15.52;48.76;99862.41;10317705;28;20691;-39
2023/05/02 01:17:20;;;;;;;12.20;7.00;;;;;;;14.77;49.92;99865.53;10319484;28;20229;-39
2023/05/02 01:22:25;;;;;;;6.90;6.20;;;;;;;15.46;48.24;99857.88;10316133;28;20245;-40
2023/05/02 01:27:33;;;;;;;7.70;6.57;;;;;;;15.72;47.35;99842.63;10318807;28;20230;-39
2023/05/02 01:32:37;;;;;;;7.93;6.40;;;;;;;15.82;47.00;99851.06;10315106;28;20230;-38
2023/05/02 01:37:41;;;;;;;7.33;6.63;;;;;;;15.54;47.47;99864.91;10320251;28;20233;-39
2023/05/02 01:42:45;;;;;;;7.17;6.47;;;;;;;14.90;48.58;99883.59;10315560;28;20236;-39
2023/05/02 01:47:48;;;;;;;7.27;6.57;;;;;;;15.41;47.42;99875.75;10314178;28;20252;-38
2023/05/02 01:52:52;;;;;;;7.70;6.87;;;;;;;14.77;47.67;99870.94;10318680;28;20233;-40
2023/05/02 01:57:56;;;;;;;6.70;5.97;;;;;;;15.10;47.40;99886.22;10315567;28;21160;-39
2023/05/02 02:02:58;;;;;;;7.27;6.57;;;;;;;14.05;49.14;99899.50;10317096;28;20287;-39
2023/05/02 02:08:00;;;;;;;7.13;6.43;;;;;;;14.29;49.13;99919.66;10317727;28;20573;-39
2023/05/02 02:13:12;;;;;;;9.67;6.53;;;;;;;14.63;48.64;99950.09;10316424;28;20222;-39
2023/05/02 02:18:20;;;;;;;6.83;6.13;;;;;;;15.64;46.75;99934.56;10318724;28;20695;-39
2023/05/02 02:23:26;;;;;;;6.57;5.97;;;;;;;14.33;48.76;99931.66;10316128;28;20266;-39
2023/05/02 02:28:28;;;;;;;7.40;6.70;;;;;;;14.01;48.77;99909.00;10319048;28;20202;-39
2023/05/02 02:33:30;;;;;;;9.20;6.00;;;;;;;12.91;51.94;99947.38;10317015;28;20226;-39
2023/05/02 02:39:09;;;;;;;7.23;6.13;;;;;;;13.93;49.57;99955.75;10316460;28;20245;-39
2023/05/02 02:44:44;;;;;;;7.27;6.50;;;;;;;14.82;47.95;99963.81;10311414;28;20230;-39
2023/05/02 02:49:50;;;;;;;7.30;6.10;;;;;;;15.40;47.30;99950.41;10315281;28;20237;-38
2023/05/02 02:54:59;;;;;;;6.60;6.00;;;;;;;15.05;47.17;99947.19;10313257;28;20238;-39
2023/05/02 03:00:10;;;;;;;7.20;6.50;;;;;;;13.97;49.31;99957.03;10317497;28;20236;-39
2023/05/02 03:05:13;;;;;;;7.67;6.60;;;;;;;15.40;47.45;99980.06;10311905;28;20233;-38
2023/05/02 03:10:15;;;;;;;6.87;6.17;;;;;;;15.04;47.05;99956.31;10316593;28;20261;-39
2023/05/02 03:15:39;;;;;;;7.73;6.40;;;;;;;15.16;46.94;99972.66;10313869;28;20230;-38
2023/05/02 03:20:41;;;;;;;9.00;6.60;;;;;;;15.93;46.49;100014.16;10312571;28;20230;-38
2023/05/02 03:25:43;;;;;;;7.23;6.27;;;;;;;15.66;46.66;99998.06;10315905;28;20321;-39
2023/05/02 03:30:45;;;;;;;7.57;6.23;;;;;;;15.04;47.64;99989.47;10315488;28;20248;-41
2023/05/02 03:35:46;;;;;;;7.53;6.73;;;;;;;15.27;47.31;100002.50;10312467;28;20237;-38
2023/05/02 03:40:48;;;;;;;6.43;5.83;;;;;;;14.83;47.90;100003.16;10312994;28;20230;-38
2023/05/02 03:45:50;;;;;;;7.10;6.40;;;;;;;15.43;46.48;100016.56;10300133;28;20249;-41
2023/05/02 03:50:52;;;;;;;7.70;6.70;;;;;;;15.03;46.95;99998.63;10317276;28;20361;-39
2023/05/02 03:55:53;;;;;;;8.30;6.40;;;;;;;14.99;46.98;99986.56;10310108;28;20242;-41
2023/05/02 04:00:55;;;;;;;7.30;6.60;;;;;;;14.67;47.10;100007.91;10312684;28;20238;-38
2023/05/02 04:05:57;;;;;;;9.67;7.37;;;;;;;13.70;48.97;100027.88;10310169;28;20238;-40
2023/05/02 04:10:58;;;;;;;7.40;6.60;;;;;;;14.25;48.14;100057.53;10314883;28;20237;-39
2023/05/02 04:16:00;;;;;;;7.00;6.30;;;;;;;15.34;46.21;100064.50;10321501;28;20248;-39
2023/05/02 04:21:02;;;;;;;6.60;5.93;;;;;;;15.17;45.70;100023.69;10323832;28;20715;-39
2023/05/02 04:26:05;;;;;;;8.23;6.80;;;;;;;14.63;46.78;100051.59;10320069;28;20234;-39
2023/05/02 04:31:07;;;;;;;7.30;6.60;;;;;;;15.13;46.36;100044.84;10318150;28;20234;-42
2023/05/02 04:36:09;;;;;;;7.30;6.50;;;;;;;14.72;46.54;100053.06;10319228;28;20329;-38
2023/05/02 04:41:11;;;;;;;7.97;7.00;;;;;;;12.96;49.79;100027.38;10321902;28;20249;-38
2023/05/02 04:46:13;;;;;;;9.23;7.13;;;;;;;15.22;46.28;100064.31;10319662;28;20845;-38
2023/05/02 04:51:15;;;;;;;7.90;7.20;;;;;;;14.38;47.41;100071.03;10319886;28;20233;-38
2023/05/02 04:56:17;;;;;;;8.43;7.50;;;;;;;14.00;48.62;100099.22;10320640;28;20238;-38
2023/05/02 05:01:19;;;;;;;8.47;7.67;;;;;;;13.80;48.96;100085.66;10317202;28;20617;-38
2023/05/02 05:06:21;;;;;;;8.30;7.50;;;;;;;15.52;46.51;100115.06;10319340;28;20238;-38
2023/05/02 05:11:25;;;;;;;9.17;6.90;;;;;;;14.94;47.69;100110.31;10317786;28;20234;-38
2023/05/02 05:16:26;;;;;;;8.57;7.73;;;;;;;14.75;47.50;100137.00;10322438;28;20237;-38
2023/05/02 05:21:28;;;;;;;10.13;9.17;;;;;;;15.59;46.77;100147.47;10314969;28;20230;-38
2023/05/02 05:26:30;;;;;;;9.17;8.27;;;;;;;15.23;47.01;100135.22;10318350;28;20237;-38
2023/05/02 05:31:32;;;;;;;8.87;7.97;;;;;;;15.21;47.13;100108.47;10319031;28;20237;-41
2023/05/02 05:36:34;;;;;;;8.70;7.83;;;;;;;14.52;47.94;100121.16;10314200;28;20280;-39
2023/05/02 05:41:37;;;;;;;9.03;8.13;;;;;;;14.55;48.19;100128.03;10311353;28;20234;-39
2023/05/02 05:46:38;;;;;;;9.57;7.40;;;;;;;14.97;47.72;100119.88;10320497;28;20325;-39
2023/05/02 05:51:40;;;;;;;8.07;7.27;;;;;;;14.76;48.35;100152.13;10318193;28;20646;-38
2023/05/02 05:56:43;;;;;;;8.20;7.40;;;;;;;15.69;46.97;100156.00;10312601;28;20238;-39
2023/05/02 06:01:44;;;;;;;10.23;8.20;;;;;;;14.62;48.74;100136.94;10316218;28;20253;-39
2023/05/02 06:06:46;;;;;;;9.20;8.10;;;;;;;14.31;49.36;100137.47;10317133;28;20244;-39
2023/05/02 06:11:48;;;;;;;8.63;7.73;;;;;;;15.16;48.15;100127.13;10310560;28;20308;-39
2023/05/02 06:16:50;;;;;;;10.80;8.47;;;;;;;15.59;47.30;100171.75;10316225;28;20265;-38
2023/05/02 06:21:51;;;;;;;9.93;8.63;;;;;;;15.85;47.17;100190.59;10314111;28;20349;-39
2023/05/02 06:26:53;;;;;;;9.93;8.93;;;;;;;15.11;48.14;100184.34;10314350;28;20241;-39
2023/05/02 06:31:55;;;;;;;9.67;8.67;;;;;;;14.99;48.64;100159.03;10309750;28;20238;-39
2023/05/02 06:36:57;;;;;;;9.57;8.67;;;;;;;16.03;47.65;100211.56;10317836;28;20719;-39
2023/05/02 06:42:00;;;;;;;9.90;9.00;;;;;;;15.92;48.16;100212.19;10311659;28;20227;-39
2023/05/02 06:47:03;;;;;;;11.10;10.00;;;;;;;16.87;45.98;100233.34;10309165;28;20234;-38
2023/05/02 06:52:05;;;;;;;10.67;9.67;;;;;;;15.95;47.81;100219.88;10317162;28;20238;-39
2023/05/02 06:57:07;;;;;;;13.73;11.50;;;;;;;15.49;48.34;100224.22;10314987;28;20250;-39
2023/05/02 07:02:08;;;;;;;11.27;10.07;;;;;;;15.97;47.37;100181.88;10313536;28;20732;-39
2023/05/02 07:07:10;;;;;;;11.27;10.17;;;;;;;15.10;49.64;100192.63;10314023;28;20237;-39
2023/05/02 07:12:12;;;;;;;12.33;11.13;;;;;;;16.16;47.88;100207.16;10315362;28;20245;-38
2023/05/02 07:17:14;;;;;;;12.20;11.00;;;;;;;17.12;46.13;100249.66;10313531;28;21401;-38
2023/05/02 07:22:16;;;;;;;15.70;12.77;;;;;;;16.06;46.96;100224.63;10311875;28;20244;-39
2023/05/02 07:27:18;;;;;;;17.23;15.50;;;;;;;14.58;47.62;100170.72;10316282;28;20245;-39
2023/05/02 07:32:20;;;;;;;17.50;15.67;;;;;;;13.73;50.08;100191.53;10313060;28;20319;-39
2023/05/02 07:37:22;;;;;;;17.13;15.00;;;;;;;16.68;46.14;100243.19;10315001;28;20246;-39
2023/05/02 07:42:30;;;;;;;20.23;16.23;;;;;;;15.36;47.87;100236.84;10313654;28;20304;-41
2023/05/02 07:47:32;;;;;;;17.00;15.20;;;;;;;16.96;45.05;100242.06;10319006;28;20233;-39
2023/05/02 07:52:34;;;;;;;19.10;17.10;;;;;;;14.85;48.08;100232.81;10304197;28;20584;-39
2023/05/02 07:57:35;;;;;;;18.87;16.93;;;;;;;16.84;46.12;100241.03;10321785;28;20244;-38
2023/05/02 08:02:37;;;;;;;22.23;19.40;;;;;;;14.56;48.60;100223.91;10323814;28;20625;-39
2023/05/02 08:07:39;;;;;;;24.37;21.53;;;;;;;14.08;49.69;100197.78;10316909;28;20234;-39
2023/05/02 08:12:41;;;;;;;22.87;20.53;;;;;;;16.44;47.92;100228.53;10322021;28;20580;-39
2023/05/02 08:17:42;;;;;;;28.57;25.47;;;;;;;16.41;46.40;100210.84;10323113;28;20597;-38
2023/05/02 08:22:44;;;;;;;25.67;22.87;;;;;;;15.47;47.80;100237.09;10319237;28;20234;-39
2023/05/02 08:27:46;;;;;;;28.10;23.73;;;;;;;16.37;46.76;100249.31;10315885;28;20253;-38
2023/05/02 08:32:47;;;;;;;28.83;24.67;;;;;;;15.92;47.33;100260.78;10317706;28;20246;-38
2023/05/02 08:37:49;;;;;;;30.43;24.83;;;;;;;16.55;46.37;100238.66;10322157;28;20646;-39
2023/05/02 08:42:53;;;;;;;28.07;23.13;;;;;;;17.30;44.52;100272.44;10319230;28;20240;-39
2023/05/02 08:47:55;;;;;;;26.10;23.30;;;;;;;18.87;42.09;100267.91;10322426;28;20715;-39
2023/05/02 08:52:58;;;;;;;24.43;21.70;;;;;;;18.05;43.53;100231.06;10318176;28;20300;-39
2023/05/02 08:58:02;;;;;;;23.73;21.23;;;;;;;16.13;45.25;100178.72;10320305;28;20263;-39
2023/05/02 09:03:37;;;;;;;25.33;22.47;;;;;;;17.32;45.28;100217.06;10314535;28;20297;-39
2023/05/02 09:08:40;;;;;;;26.83;23.93;;;;;;;17.24;46.05;100227.31;10286231;28;20237;-39
2023/05/02 09:13:45;;;;;;;26.97;24.10;;;;;;;15.17;47.30;100231.22;10318348;28;20234;-39
2023/05/02 09:18:50;;;;;;;27.57;23.53;;;;;;;15.27;47.30;100234.34;10315024;28;20602;-39
2023/05/02 09:23:56;;;;;;;25.07;22.37;;;;;;;16.91;45.66;100212.13;10318547;28;20233;-39
2023/05/02 09:29:00;;;;;;;26.37;22.73;;;;;;;17.26;44.38;100220.66;10316807;28;20232;-39
2023/05/02 09:34:15;;;;;;;26.63;22.90;;;;;;;16.80;44.64;100170.38;10318528;28;20230;-39
2023/05/02 09:39:23;;;;;;;25.03;22.33;;;;;;;16.93;44.25;100167.59;10314420;28;20234;-39
2023/05/02 09:44:36;;;;;;;25.17;22.43;;;;;;;17.36;42.92;100206.66;10317027;28;20234;-39
2023/05/02 09:49:43;;;;;;;26.67;23.23;;;;;;;16.30;44.37;100202.59;10314762;28;20240;-39
2023/05/02 09:54:46;;;;;;;25.77;22.97;;;;;;;18.06;42.83;100184.00;10318412;28;20244;-39
2023/05/02 09:59:56;;;;;;;23.97;21.37;;;;;;;18.80;42.39;100239.00;10318373;28;20238;-39
2023/05/02 10:05:00;;;;;;;25.00;20.87;;;;;;;18.52;42.49;100212.44;10317387;28;20236;-39
2023/05/02 10:10:02;;;;;;;27.07;22.97;;;;;;;18.76;42.23;100169.19;10315198;28;20233;-39
2023/05/02 10:15:08;;;;;;;23.93;21.43;;;;;;;17.62;43.58;100210.19;10316154;28;20226;-39
2023/05/02 10:20:17;;;;;;;24.63;22.03;;;;;;;17.63;43.54;100215.44;10318200;28;20226;-39
2023/05/02 10:25:19;;;;;;;26.07;22.23;;;;;;;18.11;42.99;100143.53;10314643;28;20234;-39
2023/05/02 10:30:22;;;;;;;26.87;22.50;;;;;;;20.02;40.33;100206.25;10317608;28;20255;-39
2023/05/02 10:35:25;;;;;;;27.17;22.93;;;;;;;18.23;41.79;100135.47;10317818;28;20233;-40
2023/05/02 10:40:27;;;;;;;25.23;22.20;;;;;;;19.39;40.12;100151.59;10315691;28;20230;-41
2023/05/02 10:45:29;;;;;;;24.33;21.70;;;;;;;18.27;40.25;100101.44;10318577;28;20245;-40
2023/05/02 10:50:54;;;;;;;23.23;20.70;;;;;;;19.81;40.45;100153.41;10313010;28;20237;-40
2023/05/02 10:56:13;;;;;;;25.07;22.47;;;;;;;19.45;41.63;100125.38;10317176;28;20600;-40
2023/05/02 11:06:33;;;;;;;20.97;18.67;;;;;;;15.58;46.88;100251.03;10553109;27;20345;-71
2023/05/02 11:11:41;;;;;;;20.83;18.63;;;;;;;17.37;43.69;100181.25;10485376;28;20254;-71
2023/05/02 11:17:00;;;;;;;20.27;16.53;;;;;;;17.17;44.43;100186.81;10501146;28;21504;-71
2023/05/02 11:22:22;;;;;;;20.30;17.23;;;;;;;16.79;44.02;100177.66;10515062;28;20227;-69
2023/05/02 11:27:30;;;;;;;20.00;17.90;;;;;;;15.12;47.46;100206.75;10522165;28;20701;-71
2023/05/02 11:32:48;;;;;;;20.50;16.23;;;;;;;14.30;48.00;100217.38;10513897;28;20235;-71
2023/05/02 11:38:01;;;;;;;19.23;16.10;;;;;;;14.03;48.26;100245.97;10518723;28;20720;-71
2023/05/02 11:43:14;;;;;;;16.33;14.63;;;;;;;13.98;48.43;100234.94;10522540;28;21469;-71
2023/05/02 11:48:18;;;;;;;14.83;13.17;;;;;;;13.52;49.40;100265.81;10461393;28;20242;-70
2023/05/02 11:53:22;;;;;;;14.30;12.80;;;;;;;13.47;51.20;100277.13;10511457;28;20272;-71
2023/05/02 11:58:28;;;;;;;15.47;12.97;;;;;;;13.07;50.75;100249.81;10513934;28;20238;-71
2023/05/02 12:03:32;;;;;;;14.03;11.87;;;;;;;14.13;49.91;100299.47;10519323;28;20238;-71
2023/05/02 12:08:34;;;;;;;16.67;12.67;;;;;;;14.13;49.53;100275.25;10515043;28;20231;-71
2023/05/02 12:13:44;;;;;;;16.07;13.73;;;;;;;14.66;50.04;100297.13;10512646;28;20316;-71
2023/05/02 12:18:47;;;;;;;15.87;13.50;;;;;;;17.04;45.79;100214.78;10491708;28;20234;-71
2023/05/02 12:23:48;;;;;;;16.27;13.37;;;;;;;15.34;48.71;100291.00;10494818;28;20289;-71
2023/05/02 12:28:53;;;;;;;15.57;12.33;;;;;;;17.69;45.45;100236.16;10484725;28;20238;-71
2023/05/02 12:33:56;;;;;;;15.27;13.10;;;;;;;15.58;47.48;100205.16;10491210;28;20223;-71
2023/05/02 12:39:00;;;;;;;13.80;12.40;;;;;;;15.66;47.70;100254.34;10482095;28;20236;-71
2023/05/02 12:44:02;;;;;;;12.93;11.30;;;;;;;17.60;44.21;100198.78;10495904;28;20591;-71
2023/05/02 12:49:15;;;;;;;12.83;11.53;;;;;;;16.89;44.53;100223.13;10486292;28;20900;-71
2023/05/02 12:54:20;;;;;;;12.50;9.97;;;;;;;15.93;44.60;100237.31;10488134;28;20231;-71
2023/05/02 12:59:29;;;;;;;11.43;9.53;;;;;;;16.68;43.68;100170.22;10485909;28;20231;-71
2023/05/02 13:04:40;;;;;;;10.63;9.07;;;;;;;16.29;43.47;100190.97;10484326;28;20231;-71
2023/05/02 13:09:42;;;;;;;10.37;9.20;;;;;;;18.15;42.04;100187.22;10484964;28;20613;-71
2023/05/02 13:14:43;;;;;;;9.90;8.33;;;;;;;18.23;41.23;100187.75;10500346;28;20280;-71
2023/05/02 13:19:45;;;;;;;9.97;8.47;;;;;;;17.67;42.08;100178.75;10486397;28;20289;-71
2023/05/02 13:25:00;;;;;;;12.17;8.80;;;;;;;18.42;40.98;100171.50;10487680;28;20250;-71
2023/05/02 13:30:02;;;;;;;10.03;8.10;;;;;;;17.55;41.15;100162.38;10480648;28;20231;-71
2023/05/02 13:35:12;;;;;;;7.67;6.90;;;;;;;18.60;41.18;100154.41;10485269;28;20305;-71
2023/05/02 13:40:14;;;;;;;9.43;7.93;;;;;;;18.58;40.62;100102.31;10486739;28;20235;-71
2023/05/02 13:45:16;;;;;;;8.27;6.23;;;;;;;17.96;39.62;100208.88;10485229;28;20697;-71
2023/05/02 13:50:18;;;;;;;8.37;7.30;;;;;;;17.36;39.40;100204.78;10486231;28;21069;-71
2023/05/02 13:55:20;;;;;;;8.37;6.80;;;;;;;18.22;39.41;100112.13;10475578;28;20230;-71
2023/05/02 14:00:21;;;;;;;8.47;6.70;;;;;;;17.39;39.65;100129.66;10489220;28;20233;-72
2023/05/02 14:05:23;;;;;;;14.13;7.20;;;;;;;17.68;39.25;100169.59;10473378;28;20235;-71
2023/05/02 14:10:25;;;;;;;7.60;6.17;;;;;;;17.18;38.76;100178.47;10485704;28;20235;-69
2023/05/02 14:15:26;;;;;;;7.20;6.33;;;;;;;19.19;39.39;100105.78;10486606;28;20233;-68
2023/05/02 14:20:28;;;;;;;7.60;6.10;;;;;;;18.70;39.84;100140.31;10477189;28;20235;-68
2023/05/02 14:25:30;;;;;;;9.13;6.47;;;;;;;19.01;38.90;100096.69;10481358;28;20611;-68
2023/05/02 14:30:32;;;;;;;8.70;6.73;;;;;;;18.34;40.05;100125.75;10486049;28;20230;-67
2023/05/02 14:35:33;;;;;;;6.13;5.10;;;;;;;18.18;39.96;100108.25;10481690;28;20227;-66
2023/05/02 14:40:35;;;;;;;4.97;4.20;;;;;;;17.64;38.57;100175.66;10481422;28;20772;-67
2023/05/02 14:45:37;;;;;;;5.47;4.20;;;;;;;19.28;38.14;100100.84;10481617;28;20614;-65
2023/05/02 14:50:39;;;;;;;4.43;3.83;;;;;;;17.14;38.21;100125.91;10481467;28;20741;-63
2023/05/02 14:55:41;;;;;;;4.63;3.77;;;;;;;18.99;37.42;100125.09;10477762;28;20242;-63
2023/05/02 15:00:42;;;;;;;4.23;3.80;;;;;;;19.81;36.10;100105.34;10476367;28;20242;-64
2023/05/02 15:05:44;;;;;;;3.90;3.27;;;;;;;17.73;37.65;100166.19;10481044;28;20243;-64
2023/05/02 15:10:46;;;;;;;3.73;3.33;;;;;;;18.93;37.40;100082.63;10476636;28;20251;-64
2023/05/02 15:15:48;;;;;;;4.63;3.60;;;;;;;18.96;37.46;100114.72;10476119;28;22268;-64
2023/05/02 15:20:49;;;;;;;3.50;2.90;;;;;;;20.42;35.07;100066.91;10483709;28;20223;-69
2023/05/02 15:25:51;;;;;;;4.53;3.87;;;;;;;17.74;37.72;100111.03;10478367;28;20226;-64
2023/05/02 15:30:52;;;;;;;3.67;3.27;;;;;;;18.81;37.96;100056.31;10475781;28;20276;-70
2023/05/02 15:35:57;;;;;;;3.80;3.30;;;;;;;17.84;37.80;100100.50;10473600;28;20227;-68
2023/05/02 15:40:59;;;;;;;4.13;3.10;;;;;;;18.56;36.92;100097.13;10479179;28;20246;-62
2023/05/02 15:46:01;;;;;;;4.13;3.00;;;;;;;20.05;36.28;100050.97;10470603;28;20245;-64
2023/05/02 15:51:04;;;;;;;4.37;3.50;;;;;;;19.50;36.00;100079.38;10478168;28;20322;-63
2023/05/02 15:56:09;;;;;;;2.83;2.63;;;;;;;18.87;35.63;100107.94;10489098;28;20638;-63
2023/05/02 16:01:11;;;;;;;4.53;3.13;;;;;;;18.19;35.50;100101.78;10478469;28;20227;-63
2023/05/02 16:06:14;;;;;;;3.37;2.93;;;;;;;20.04;34.98;100019.44;10485806;28;20655;-70
2023/05/02 16:11:16;;;;;;;3.28;2.97;;;;;;;19.48;35.74;100068.75;10483576;28;20717;-64
2023/05/02 16:16:18;;;;;;;3.03;2.77;;;;;;;19.35;36.08;100101.53;10498394;28;20258;-66
2023/05/02 16:21:20;;;;;;;2.83;2.35;;;;;;;17.90;35.40;100109.63;10485844;28;20741;-64
2023/05/02 16:26:21;;;;;;;3.20;1.93;;;;;;;18.79;34.79;100049.47;10484027;28;20238;-65
2023/05/02 16:31:23;;;;;;;5.47;3.03;;;;;;;19.43;35.96;100076.78;10485391;28;20234;-63
2023/05/02 16:36:26;;;;;;;4.03;3.50;;;;;;;17.90;36.98;100104.19;10479683;28;20721;-64
2023/05/02 16:41:28;;;;;;;5.03;3.93;;;;;;;18.30;37.83;100113.75;10485205;28;20238;-64
2023/05/02 16:46:30;;;;;;;6.30;4.27;;;;;;;17.75;38.97;100092.91;10473657;28;20736;-64
2023/05/02 16:51:32;;;;;;;5.93;4.03;;;;;;;18.39;38.17;100094.25;10484875;28;20254;-63
2023/05/02 16:56:33;;;;;;;6.07;3.90;;;;;;;17.89;38.38;100102.53;10483049;28;20761;-63
2023/05/02 17:01:35;;;;;;;5.77;4.30;;;;;;;20.54;36.97;100024.19;10476654;28;20228;-64
2023/05/02 17:06:37;;;;;;;4.93;4.00;;;;;;;20.07;36.74;100041.50;10476102;28;20243;-63
2023/05/02 17:11:38;;;;;;;5.80;3.50;;;;;;;18.60;36.68;100076.63;10484079;28;20761;-63
2023/05/02 17:16:40;;;;;;;5.43;3.87;;;;;;;19.57;36.04;100096.41;10489730;28;20227;-63
2023/05/02 17:21:42;;;;;;;3.83;3.40;;;;;;;18.41;36.53;100094.03;10485965;28;20745;-64
2023/05/02 17:26:43;;;;;;;5.23;3.40;;;;;;;19.02;36.75;100068.50;10476837;28;20266;-63
2023/05/02 17:31:45;;;;;;;3.63;3.30;;;;;;;20.12;35.95;100032.63;10484310;28;20725;-64
2023/05/02 17:36:47;;;;;;;4.43;3.47;;;;;;;17.98;38.18;100089.53;10473372;28;20722;-63
2023/05/02 17:41:48;;;;;;;3.80;3.40;;;;;;;18.68;37.94;100131.59;10474848;28;20238;-64
2023/05/02 17:46:50;;;;;;;3.43;3.13;;;;;;;18.11;38.78;100113.72;10482198;28;20243;-63
2023/05/02 17:51:52;;;;;;;5.13;3.30;;;;;;;18.53;38.35;100094.06;10477440;28;20238;-64
2023/05/02 17:56:54;;;;;;;5.63;3.33;;;;;;;18.29;38.44;100112.94;10481456;28;20247;-63
2023/05/02 18:01:55;;;;;;;5.27;3.63;;;;;;;18.28;38.23;100101.25;10473580;28;20881;-63
2023/05/02 18:06:57;;;;;;;4.07;3.03;;;;;;;19.16;37.56;100101.66;10479111;28;20270;-62
2023/05/02 18:12:02;;;;;;;4.53;3.50;;;;;;;19.75;36.63;100093.56;10484648;28;20227;-61
2023/05/02 18:17:04;;;;;;;3.93;3.47;;;;;;;18.72;37.85;100139.00;10473143;28;20249;-65
2023/05/02 18:22:09;;;;;;;6.40;3.77;;;;;;;18.02;38.23;100155.72;10476287;28;20222;-68
2023/05/02 18:27:11;;;;;;;5.43;4.43;;;;;;;19.35;37.05;100112.41;10473490;28;20873;-67
2023/05/02 18:32:13;;;;;;;4.93;4.30;;;;;;;18.01;38.06;100135.09;10479641;28;20740;-65
2023/05/02 18:37:15;;;;;;;5.50;4.47;;;;;;;18.94;37.32;100090.53;10480696;28;20231;-65
2023/05/02 18:42:16;;;;;;;6.17;3.93;;;;;;;16.85;38.99;100081.34;10479325;28;20277;-65
2023/05/02 18:47:20;;;;;;;6.73;4.17;;;;;;;18.47;37.80;100158.09;10484001;28;20246;-67
2023/05/02 18:52:21;;;;;;;5.07;3.67;;;;;;;17.44;39.03;100175.78;10478306;28;20727;-66
2023/05/02 18:57:24;;;;;;;6.53;4.37;;;;;;;16.23;39.77;100133.22;10484080;28;20231;-66
2023/05/02 19:02:26;;;;;;;6.10;4.00;;;;;;;19.20;36.81;100135.41;10480330;28;20243;-69
2023/05/02 19:07:27;;;;;;;4.90;4.40;;;;;;;15.62;40.03;100099.34;10475103;28;20328;-66
2023/05/02 19:12:29;;;;;;;5.57;4.73;;;;;;;16.21;39.95;100178.50;10476862;28;20285;-64
2023/05/02 19:17:31;;;;;;;5.00;4.50;;;;;;;16.98;39.72;100251.59;10471419;28;20871;-64
2023/05/02 19:22:33;;;;;;;4.77;4.27;;;;;;;14.83;42.21;100181.81;10473380;28;20298;-64
2023/05/02 19:27:35;;;;;;;5.70;4.33;;;;;;;14.47;42.61;100199.03;10487558;28;20231;-65
2023/05/02 19:32:37;;;;;;;5.13;4.17;;;;;;;15.29;41.44;100326.66;10488126;28;20222;-65
2023/05/02 19:37:38;;;;;;;6.10;3.87;;;;;;;15.57;40.53;100327.56;10477015;28;20270;-68
2023/05/02 19:42:40;;;;;;;5.17;4.40;;;;;;;16.54;39.42;100307.22;10481207;28;20284;-64
2023/05/02 19:47:42;;;;;;;5.67;4.07;;;;;;;14.98;41.35;100334.41;10480345;28;20247;-63
2023/05/02 19:52:44;;;;;;;5.90;4.27;;;;;;;14.59;41.94;100334.81;10484024;28;20738;-63
2023/05/02 19:57:47;;;;;;;4.27;3.87;;;;;;;14.38;41.88;100368.00;10481135;28;20288;-65
2023/05/02 20:02:48;;;;;;;5.47;4.70;;;;;;;15.12;41.21;100372.00;10487300;28;20236;-63
2023/05/02 20:07:52;;;;;;;5.03;4.03;;;;;;;14.45;41.18;100357.25;10481758;28;20224;-63
2023/05/02 20:12:53;;;;;;;6.00;4.50;;;;;;;14.48;42.01;100382.97;10486132;28;20293;-63
2023/05/02 20:17:55;;;;;;;5.27;4.63;;;;;;;14.19;42.08;100379.44;10471851;28;20242;-63
2023/05/02 20:22:58;;;;;;;6.83;5.17;;;;;;;13.13;43.07;100301.13;10483673;28;20246;-63
2023/05/02 20:27:59;;;;;;;6.83;4.93;;;;;;;13.39;43.25;100349.84;10478187;28;20300;-63
2023/05/02 20:33:01;;;;;;;6.13;5.10;;;;;;;14.54;41.86;100420.72;10481271;28;20292;-63
2023/05/02 20:38:16;;;;;;;6.03;5.30;;;;;;;16.22;40.04;100377.25;10471202;28;20315;-63
2023/05/02 20:43:18;;;;;;;7.47;5.33;;;;;;;14.48;41.04;100418.81;10476569;28;20227;-64
2023/05/02 20:48:20;;;;;;;5.13;4.50;;;;;;;15.38;41.06;100421.66;10474001;28;20607;-63
2023/05/02 20:53:22;;;;;;;5.73;4.77;;;;;;;14.89;40.31;100415.41;10476943;28;20562;-63
2023/05/02 20:58:25;;;;;;;7.93;5.07;;;;;;;15.97;39.45;100414.81;10476509;28;20829;-63
2023/05/02 21:03:26;;;;;;;8.13;4.73;;;;;;;14.02;41.59;100368.91;10474367;28;20241;-63
2023/05/02 21:08:28;;;;;;;7.03;5.10;;;;;;;12.67;43.19;100316.47;10479394;28;20318;-63
2023/05/02 21:13:30;;;;;;;5.47;4.87;;;;;;;13.18;42.90;100433.91;10476835;28;20215;-63
2023/05/02 21:18:31;;;;;;;6.73;5.10;;;;;;;12.51;43.28;100375.72;10472731;28;20243;-63
2023/05/02 21:23:33;;;;;;;7.57;5.43;;;;;;;14.00;41.93;100478.59;10468928;28;20236;-62
2023/05/02 21:28:36;;;;;;;5.87;5.13;;;;;;;12.67;43.33;100431.94;10436883;28;20259;-63
2023/05/02 21:33:38;;;;;;;6.60;5.30;;;;;;;13.08;42.18;100453.00;10482767;28;20608;-62
2023/05/02 21:38:40;;;;;;;6.60;5.77;;;;;;;12.57;43.00;100417.09;10483421;28;20241;-63
2023/05/02 21:43:41;;;;;;;6.63;5.93;;;;;;;14.69;41.21;100482.56;10487087;28;20232;-63
2023/05/02 21:48:43;;;;;;;6.70;5.50;;;;;;;14.18;41.18;100488.94;10521245;28;20296;-63
2023/05/02 21:53:44;;;;;;;7.47;5.47;;;;;;;12.35;42.65;100380.19;10514080;28;20588;-63
2023/05/02 21:58:48;;;;;;;7.33;5.80;;;;;;;13.28;42.77;100509.75;10519602;28;20254;-63
2023/05/02 22:03:50;;;;;;;8.97;5.53;;;;;;;13.98;41.68;100480.63;10520743;28;20231;-63
2023/05/02 22:08:51;;;;;;;8.77;5.90;;;;;;;12.03;43.53;100392.03;10519065;28;20268;-63
2023/05/02 22:13:53;;;;;;;8.90;6.13;;;;;;;11.71;44.22;100385.88;10518240;28;20233;-63
2023/05/02 22:18:56;;;;;;;9.63;6.20;;;;;;;12.84;42.81;100509.63;10517975;28;20250;-62
2023/05/02 22:23:58;;;;;;;7.53;6.27;;;;;;;12.24;44.21;100487.94;10515894;28;20299;-63
2023/05/02 22:29:00;;;;;;;7.13;5.73;;;;;;;11.72;44.59;100454.56;10517447;28;20241;-62
2023/05/02 22:34:01;;;;;;;7.03;5.97;;;;;;;12.10;43.50;100481.50;10516796;28;20234;-62
2023/05/02 22:39:07;;;;;;;5.97;5.30;;;;;;;12.41;44.50;100520.88;10511924;28;20233;-63
2023/05/02 22:44:10;;;;;;;7.70;5.97;;;;;;;13.03;43.12;100544.06;10516900;28;20225;-62
2023/05/02 22:49:11;;;;;;;8.17;6.37;;;;;;;12.57;43.67;100538.75;10504329;28;20234;-63
2023/05/02 22:54:14;;;;;;;8.33;5.77;;;;;;;11.38;45.21;100481.66;10513937;28;20226;-62
2023/05/02 22:59:16;;;;;;;8.03;6.13;;;;;;;11.50;45.76;100527.66;10509365;28;20242;-63
2023/05/02 23:04:18;;;;;;;6.27;5.47;;;;;;;12.10;44.95;100548.56;10508601;28;20612;-63
2023/05/02 23:09:19;;;;;;;6.73;6.03;;;;;;;11.49;45.55;100545.59;10509766;28;20230;-63
2023/05/02 23:14:22;;;;;;;9.13;5.67;;;;;;;11.33;45.80;100537.59;10510131;28;20226;-63